createdAt,value
2017-10-18T00:00:10.564Z,14.10
2017-10-18T00:02:38.410Z,13.73
2017-10-18T00:05:06.280Z,14.07
2017-10-18T00:07:34.130Z,14.10
2017-10-18T00:10:01.969Z,14.53
2017-10-18T00:12:29.813Z,14.03
2017-10-18T00:14:57.657Z,12.67
2017-10-18T00:17:25.517Z,16.83
2017-10-18T00:19:53.370Z,14.33
2017-10-18T00:22:21.225Z,15.50
2017-10-18T00:24:49.079Z,14.17
2017-10-18T00:27:16.942Z,13.90
2017-10-18T00:29:44.777Z,14.00
2017-10-18T00:32:12.631Z,14.20
2017-10-18T00:37:15.041Z,14.40
2017-10-18T00:39:42.885Z,16.00
2017-10-18T00:42:10.776Z,15.33
2017-10-18T00:44:38.620Z,14.97
2017-10-18T00:47:06.489Z,16.17
2017-10-18T00:49:34.349Z,14.00
2017-10-18T00:52:02.216Z,14.83
2017-10-18T00:54:30.066Z,13.97
2017-10-18T00:56:57.910Z,14.50
2017-10-18T00:59:25.752Z,16.43
2017-10-18T01:01:53.604Z,15.13
2017-10-18T01:04:21.501Z,15.23
2017-10-18T01:06:49.401Z,15.17
2017-10-18T01:09:17.244Z,16.30
2017-10-18T01:11:45.101Z,12.80
2017-10-18T01:14:12.989Z,17.70
2017-10-18T01:16:40.836Z,14.80
2017-10-18T01:19:08.697Z,13.70
2017-10-18T01:21:36.520Z,14.27
2017-10-18T01:24:04.386Z,14.93
2017-10-18T01:26:32.217Z,13.73
2017-10-18T01:29:00.125Z,14.00
2017-10-18T01:31:27.969Z,14.50
2017-10-18T01:33:55.840Z,14.37
2017-10-18T01:36:23.698Z,13.40
2017-10-18T01:38:51.511Z,14.00
2017-10-18T01:41:19.331Z,14.80
2017-10-18T01:43:47.172Z,13.30
2017-10-18T01:46:15.008Z,13.70
2017-10-18T01:48:42.832Z,13.93
2017-10-18T01:51:10.680Z,13.70
2017-10-18T01:53:38.562Z,13.80
2017-10-18T01:56:06.423Z,11.97
2017-10-18T01:58:34.316Z,13.43
2017-10-18T02:01:02.197Z,14.40
2017-10-18T02:03:30.049Z,16.50
2017-10-18T02:05:57.888Z,13.17
2017-10-18T02:08:25.718Z,14.73
2017-10-18T02:10:53.542Z,12.47
2017-10-18T02:13:21.385Z,13.10
2017-10-18T02:15:49.253Z,13.30
2017-10-18T02:18:17.105Z,14.10
2017-10-18T02:20:44.941Z,13.30
2017-10-18T02:23:12.777Z,14.77
2017-10-18T02:25:40.606Z,12.70
2017-10-18T02:28:08.458Z,11.80
2017-10-18T02:30:36.299Z,13.50
2017-10-18T02:33:04.125Z,13.00
2017-10-18T02:35:31.981Z,14.83
2017-10-18T02:37:59.838Z,12.30
2017-10-18T02:40:27.680Z,14.20
2017-10-18T02:42:55.526Z,12.87
2017-10-18T02:45:23.358Z,14.07
2017-10-18T02:47:51.200Z,12.10
2017-10-18T02:50:19.049Z,15.50
2017-10-18T02:52:46.895Z,12.37
2017-10-18T02:55:14.753Z,12.70
2017-10-18T02:57:42.577Z,12.57
2017-10-18T03:00:10.570Z,15.40
2017-10-18T03:02:38.865Z,12.43
2017-10-18T03:05:07.344Z,12.80
2017-10-18T03:07:35.561Z,12.00
2017-10-18T03:10:03.514Z,12.30
2017-10-18T03:12:31.356Z,11.73
2017-10-18T03:14:59.217Z,12.00
2017-10-18T03:17:27.041Z,12.30
2017-10-18T03:19:55.289Z,13.67
2017-10-18T03:22:23.101Z,12.13
2017-10-18T03:24:50.933Z,12.03
2017-10-18T03:27:18.827Z,12.50
2017-10-18T03:29:46.682Z,13.40
2017-10-18T03:32:14.525Z,11.93
2017-10-18T03:34:42.366Z,13.20
2017-10-18T03:37:10.225Z,11.50
2017-10-18T03:39:38.055Z,12.43
2017-10-18T03:42:05.900Z,14.17
2017-10-18T03:44:33.709Z,10.70
2017-10-18T03:47:01.558Z,12.87
2017-10-18T03:49:29.397Z,10.20
2017-10-18T03:51:57.237Z,12.90
2017-10-18T03:54:25.077Z,13.00
2017-10-18T03:56:52.916Z,13.20
2017-10-18T03:59:20.761Z,12.87
2017-10-18T04:01:48.610Z,14.80
2017-10-18T04:04:16.434Z,12.60
2017-10-18T04:06:44.309Z,11.93
2017-10-18T04:09:12.208Z,11.43
2017-10-18T04:11:40.176Z,13.57
2017-10-18T04:14:07.996Z,14.10
2017-10-18T04:16:35.849Z,14.97
2017-10-18T04:19:03.705Z,11.37
2017-10-18T04:21:31.566Z,12.73
2017-10-18T04:23:59.404Z,13.77
2017-10-18T04:26:27.255Z,13.83
2017-10-18T04:28:55.126Z,12.07
2017-10-18T04:31:23.413Z,14.70
2017-10-18T04:33:51.280Z,12.60
2017-10-18T04:36:19.140Z,13.80
2017-10-18T04:38:47.009Z,13.67
2017-10-18T04:41:14.877Z,14.30
2017-10-18T04:43:42.754Z,13.47
2017-10-18T04:46:10.642Z,14.53
2017-10-18T04:48:38.494Z,14.43
2017-10-18T04:51:06.350Z,13.50
2017-10-18T04:53:34.171Z,12.27
2017-10-18T04:56:02.014Z,12.53
2017-10-18T04:58:29.841Z,14.00
2017-10-18T05:00:57.681Z,12.03
2017-10-18T05:03:25.521Z,12.90
2017-10-18T05:05:53.370Z,13.07
2017-10-18T05:08:21.229Z,12.17
2017-10-18T05:10:49.072Z,15.90
2017-10-18T05:13:16.913Z,14.90
2017-10-18T05:15:44.760Z,12.63
2017-10-18T05:18:12.616Z,12.37
2017-10-18T05:20:40.463Z,13.60
2017-10-18T05:23:08.324Z,13.77
2017-10-18T05:25:36.153Z,13.60
2017-10-18T05:28:03.988Z,12.10
2017-10-18T05:30:31.839Z,12.90
2017-10-18T05:32:59.673Z,14.47
2017-10-18T05:35:27.552Z,15.13
2017-10-18T05:37:55.390Z,14.20
2017-10-18T05:40:23.244Z,12.70
2017-10-18T05:42:51.110Z,12.10
2017-10-18T05:45:18.953Z,15.53
2017-10-18T05:47:46.831Z,13.50
2017-10-18T05:50:14.656Z,13.77
2017-10-18T05:52:42.510Z,13.87
2017-10-18T05:55:11.122Z,12.67
2017-10-18T05:57:38.952Z,11.63
2017-10-18T06:00:06.780Z,12.90
2017-10-18T06:02:34.702Z,13.60
2017-10-18T06:05:02.531Z,15.80
2017-10-18T06:07:30.389Z,12.60
2017-10-18T06:09:58.214Z,13.80
2017-10-18T06:12:26.096Z,15.10
2017-10-18T06:14:53.920Z,15.17
2017-10-18T06:17:21.763Z,14.63
2017-10-18T06:19:49.595Z,13.80
2017-10-18T06:22:17.444Z,14.80
2017-10-18T06:24:45.285Z,15.60
2017-10-18T06:27:13.134Z,13.20
2017-10-18T06:29:40.983Z,12.90
2017-10-18T06:32:08.825Z,14.27
2017-10-18T06:34:36.733Z,13.80
2017-10-18T06:37:04.584Z,15.47
2017-10-18T06:39:32.433Z,14.47
2017-10-18T06:42:00.269Z,16.13
2017-10-18T06:44:28.190Z,17.70
2017-10-18T06:46:56.085Z,15.53
2017-10-18T06:49:23.938Z,16.93
2017-10-18T06:51:51.783Z,14.63
2017-10-18T06:54:19.624Z,13.83
2017-10-18T06:56:47.449Z,15.20
2017-10-18T06:59:15.292Z,13.83
2017-10-18T07:01:43.159Z,17.23
2017-10-18T07:04:11.033Z,14.77
2017-10-18T07:06:38.866Z,15.03
2017-10-18T07:09:06.705Z,15.97
2017-10-18T07:11:34.545Z,13.63
2017-10-18T07:14:02.397Z,15.20
2017-10-18T07:16:30.256Z,15.70
2017-10-18T07:18:58.095Z,15.20
2017-10-18T07:21:25.979Z,13.90
2017-10-18T07:23:53.853Z,14.23
2017-10-18T07:26:21.720Z,13.93
2017-10-18T07:28:49.588Z,14.93
2017-10-18T07:31:17.424Z,14.93
2017-10-18T07:33:45.268Z,16.87
2017-10-18T07:36:13.121Z,13.93
2017-10-18T07:38:40.952Z,13.80
2017-10-18T07:41:08.789Z,14.00
2017-10-18T07:43:36.601Z,15.20
2017-10-18T07:46:04.428Z,13.70
2017-10-18T07:48:32.245Z,13.93
2017-10-18T07:51:00.098Z,14.20
2017-10-18T07:53:27.959Z,14.37
2017-10-18T07:55:55.862Z,14.43
2017-10-18T07:58:23.730Z,13.03
2017-10-18T08:00:51.741Z,15.43
2017-10-18T08:03:19.594Z,14.00
2017-10-18T08:05:47.466Z,52.43
2017-10-18T08:08:15.290Z,14.53
2017-10-18T08:10:43.170Z,13.33
2017-10-18T08:13:11.025Z,12.37
2017-10-18T08:15:38.845Z,13.20
2017-10-18T08:18:06.716Z,12.03
2017-10-18T08:20:34.561Z,13.77
2017-10-18T08:23:02.371Z,13.23
2017-10-18T08:25:30.208Z,13.67
2017-10-18T08:27:58.072Z,14.00
2017-10-18T08:30:25.937Z,14.53
2017-10-18T08:32:53.765Z,14.00
2017-10-18T08:35:21.591Z,14.30
2017-10-18T08:37:49.448Z,14.80
2017-10-18T08:40:17.262Z,13.50
2017-10-18T08:42:45.110Z,14.10
2017-10-18T08:45:12.948Z,14.60
2017-10-18T08:47:40.812Z,13.53
2017-10-18T08:50:08.672Z,14.10
2017-10-18T08:52:36.533Z,11.73
2017-10-18T08:55:04.372Z,14.30
2017-10-18T08:57:32.213Z,13.43
2017-10-18T09:00:00.086Z,13.77
2017-10-18T09:02:27.957Z,12.70
2017-10-18T09:04:55.825Z,14.03
2017-10-18T09:07:23.692Z,13.50
2017-10-18T09:09:51.516Z,14.17
2017-10-18T09:12:19.385Z,15.00
2017-10-18T09:14:47.200Z,14.70
2017-10-18T09:17:15.080Z,14.60
2017-10-18T09:19:42.935Z,15.37
2017-10-18T09:22:10.782Z,16.50
2017-10-18T09:24:38.687Z,15.60
2017-10-18T09:27:06.539Z,14.77
2017-10-18T09:29:34.395Z,14.97
2017-10-18T09:32:02.314Z,14.90
2017-10-18T09:34:30.200Z,13.10
2017-10-18T09:36:58.056Z,15.90
2017-10-18T09:39:25.923Z,15.37
2017-10-18T09:41:53.789Z,15.20
2017-10-18T09:44:21.625Z,13.60
2017-10-18T09:46:49.476Z,14.93
2017-10-18T09:49:17.320Z,15.37
2017-10-18T09:51:45.133Z,16.97
2017-10-18T09:54:12.985Z,15.70
2017-10-18T09:56:40.846Z,16.47
2017-10-18T09:59:08.698Z,15.27
2017-10-18T10:01:36.558Z,16.03
2017-10-18T10:04:04.409Z,13.37
2017-10-18T10:06:32.247Z,17.20
2017-10-18T10:09:00.113Z,14.63
2017-10-18T10:11:27.954Z,15.57
2017-10-18T10:13:55.819Z,13.00
2017-10-18T10:16:23.662Z,14.10
2017-10-18T10:18:51.523Z,14.47
2017-10-18T10:21:19.346Z,15.10
2017-10-18T10:23:47.181Z,14.47
2017-10-18T10:26:15.060Z,15.17
2017-10-18T10:28:42.890Z,14.07
2017-10-18T10:31:10.868Z,13.20
2017-10-18T10:33:38.744Z,13.07
2017-10-18T10:36:06.608Z,11.33
2017-10-18T10:38:34.480Z,10.53
2017-10-18T10:41:02.348Z,12.73
2017-10-18T10:43:30.190Z,12.33
2017-10-18T10:45:58.042Z,11.20
2017-10-18T10:48:25.865Z,11.60
2017-10-18T10:50:53.725Z,12.97
2017-10-18T10:53:21.578Z,12.93
2017-10-18T10:55:49.434Z,10.40
2017-10-18T10:58:17.268Z,13.07
2017-10-18T11:00:45.138Z,15.00
2017-10-18T11:03:12.992Z,27.10
2017-10-18T11:05:40.853Z,9.23
2017-10-18T11:08:08.698Z,10.20
2017-10-18T11:10:36.520Z,11.37
2017-10-18T11:13:04.381Z,14.20
2017-10-18T11:15:32.229Z,10.30
2017-10-18T11:18:00.065Z,15.83
2017-10-18T11:20:27.903Z,64.63
2017-10-18T11:22:55.772Z,23.63
2017-10-18T11:25:23.625Z,7.80
2017-10-18T11:27:51.481Z,18.40
2017-10-18T11:30:19.322Z,9.90
2017-10-18T11:32:47.161Z,9.73
2017-10-18T11:35:14.981Z,9.50
2017-10-18T11:37:42.832Z,8.23
2017-10-18T11:40:10.652Z,9.90
2017-10-18T11:42:38.485Z,8.07
2017-10-18T11:45:06.290Z,7.77
2017-10-18T11:47:34.825Z,10.67
2017-10-18T11:50:02.643Z,7.40
2017-10-18T11:52:30.520Z,8.50
2017-10-18T11:54:58.353Z,9.23
2017-10-18T11:57:26.245Z,8.73
2017-10-18T11:59:54.091Z,7.67
2017-10-18T12:02:21.910Z,8.50
2017-10-18T12:04:49.761Z,8.73
2017-10-18T12:07:17.612Z,7.90
2017-10-18T12:09:45.462Z,8.83
2017-10-18T12:12:13.306Z,7.43
2017-10-18T12:14:41.147Z,6.97
2017-10-18T12:17:08.988Z,6.80
2017-10-18T12:19:36.962Z,7.20
2017-10-18T12:22:04.870Z,7.90
2017-10-18T12:24:32.724Z,8.10
2017-10-18T12:27:00.561Z,8.73
2017-10-18T12:29:28.409Z,7.70
2017-10-18T12:31:56.266Z,7.63
2017-10-18T12:34:24.117Z,8.20
2017-10-18T12:36:51.959Z,7.53
2017-10-18T12:39:19.790Z,8.53
2017-10-18T12:41:47.602Z,7.67
2017-10-18T12:44:15.444Z,8.80
2017-10-18T12:46:43.289Z,8.50
2017-10-18T12:49:11.131Z,7.47
2017-10-18T12:51:38.985Z,7.03
2017-10-18T12:54:06.866Z,6.40
2017-10-18T12:56:34.733Z,7.30
2017-10-18T12:59:02.585Z,5.77
2017-10-18T13:01:30.420Z,7.07
2017-10-18T13:03:58.267Z,6.40
2017-10-18T13:06:26.153Z,6.03
2017-10-18T13:08:54.157Z,6.80
2017-10-18T13:11:22.025Z,7.10
2017-10-18T13:13:49.882Z,7.97
2017-10-18T13:16:17.765Z,7.17
2017-10-18T13:18:45.595Z,7.23
2017-10-18T13:21:13.438Z,5.63
2017-10-18T13:23:41.256Z,5.50
2017-10-18T13:26:09.104Z,7.30
2017-10-18T13:28:36.922Z,5.57
2017-10-18T13:31:04.791Z,5.77
2017-10-18T13:33:32.657Z,5.37
2017-10-18T13:36:00.493Z,4.70
2017-10-18T13:38:28.313Z,5.43
2017-10-18T13:40:56.182Z,6.67
2017-10-18T13:43:24.045Z,5.20
2017-10-18T13:45:51.866Z,6.43
2017-10-18T13:48:19.704Z,5.80
2017-10-18T13:50:47.517Z,5.27
2017-10-18T13:53:15.378Z,6.30
2017-10-18T13:55:43.249Z,5.50
2017-10-18T13:58:11.110Z,5.97
2017-10-18T14:00:38.953Z,5.40
2017-10-18T14:03:06.806Z,5.80
2017-10-18T14:05:34.657Z,5.73
2017-10-18T14:08:02.561Z,5.43
2017-10-18T14:10:30.385Z,4.60
2017-10-18T14:12:58.233Z,4.73
2017-10-18T14:15:26.078Z,4.93
2017-10-18T14:17:53.945Z,5.60
2017-10-18T14:20:21.946Z,5.63
2017-10-18T14:22:49.789Z,5.27
2017-10-18T14:25:17.755Z,4.73
2017-10-18T14:27:45.671Z,5.60
2017-10-18T14:30:13.500Z,4.40
2017-10-18T14:32:41.336Z,5.40
2017-10-18T14:35:09.159Z,4.67
2017-10-18T14:37:36.996Z,5.67
2017-10-18T14:40:04.829Z,5.67
2017-10-18T14:42:32.687Z,5.73
2017-10-18T14:45:00.513Z,6.33
2017-10-18T14:47:28.356Z,5.20
2017-10-18T14:49:56.204Z,5.93
2017-10-18T14:52:24.071Z,7.10
2017-10-18T14:54:51.905Z,6.90
2017-10-18T14:57:19.741Z,6.00
2017-10-18T14:59:47.586Z,5.83
2017-10-18T15:02:15.485Z,5.10
2017-10-18T15:04:43.617Z,6.07
2017-10-18T15:07:13.632Z,7.00
2017-10-18T15:09:41.616Z,6.47
2017-10-18T15:12:09.728Z,6.20
2017-10-18T15:14:37.669Z,5.80
2017-10-18T15:17:05.654Z,5.30
2017-10-18T15:19:33.651Z,5.90
2017-10-18T15:22:01.632Z,5.80
2017-10-18T15:24:29.456Z,6.10
2017-10-18T15:26:57.292Z,7.10
2017-10-18T15:29:25.137Z,7.37
2017-10-18T15:31:52.975Z,6.87
2017-10-18T15:34:20.816Z,7.77
2017-10-18T15:36:48.678Z,6.50
2017-10-18T15:39:16.507Z,7.63
2017-10-18T15:41:44.316Z,8.40
2017-10-18T15:44:12.137Z,8.27
2017-10-18T15:46:40.498Z,7.47
2017-10-18T15:49:08.332Z,6.67
2017-10-18T15:51:36.173Z,8.00
2017-10-18T15:54:03.984Z,7.90
2017-10-18T15:56:31.822Z,7.90
2017-10-18T15:58:59.662Z,8.40
2017-10-18T16:01:27.480Z,8.57
2017-10-18T16:03:55.364Z,8.10
2017-10-18T16:06:23.176Z,7.23
2017-10-18T16:08:50.993Z,7.80
2017-10-18T16:11:18.829Z,7.80
2017-10-18T16:13:46.646Z,6.63
2017-10-18T16:16:14.472Z,8.33
2017-10-18T16:18:42.339Z,9.17
2017-10-18T16:21:10.200Z,7.37
2017-10-18T16:23:38.029Z,7.07
2017-10-18T16:26:05.861Z,7.83
2017-10-18T16:28:33.690Z,8.47
2017-10-18T16:31:01.525Z,9.80
2017-10-18T16:33:29.390Z,7.70
2017-10-18T16:35:57.223Z,9.47
2017-10-18T16:38:25.088Z,8.30
2017-10-18T16:40:52.901Z,9.10
2017-10-18T16:43:20.722Z,8.53
2017-10-18T16:45:48.568Z,8.30
2017-10-18T16:48:16.382Z,8.73
2017-10-18T16:50:44.254Z,9.40
2017-10-18T16:53:12.125Z,9.20
2017-10-18T16:55:39.950Z,8.77
2017-10-18T16:58:07.763Z,9.87
2017-10-18T17:00:35.606Z,9.43
2017-10-18T17:03:03.433Z,10.07
2017-10-18T17:05:31.248Z,10.07
2017-10-18T17:07:59.086Z,8.73
2017-10-18T17:10:26.946Z,8.53
2017-10-18T17:12:54.823Z,10.80
2017-10-18T17:15:22.676Z,11.70
2017-10-18T17:17:50.480Z,10.83
2017-10-18T17:20:18.296Z,10.33
2017-10-18T17:22:46.118Z,12.90
2017-10-18T17:25:13.941Z,10.90
2017-10-18T17:27:41.793Z,10.90
2017-10-18T17:30:09.634Z,11.83
2017-10-18T17:32:37.505Z,11.60
2017-10-18T17:35:05.321Z,10.87
2017-10-18T17:37:33.168Z,11.30
2017-10-18T17:40:01.005Z,12.00
2017-10-18T17:42:28.880Z,10.93
2017-10-18T17:44:56.718Z,10.93
2017-10-18T17:47:24.557Z,10.53
2017-10-18T17:49:52.395Z,12.33
2017-10-18T17:52:20.655Z,11.30
2017-10-18T17:54:48.637Z,12.33
2017-10-18T17:57:16.482Z,12.53
2017-10-18T17:59:44.333Z,13.50
2017-10-18T18:02:12.142Z,12.20
2017-10-18T18:04:39.963Z,13.13
2017-10-18T18:07:07.790Z,12.80
2017-10-18T18:09:35.622Z,12.57
2017-10-18T18:12:03.473Z,13.70
2017-10-18T18:14:31.356Z,12.13
2017-10-18T18:16:59.200Z,13.30
2017-10-18T18:19:27.058Z,11.63
2017-10-18T18:21:54.933Z,11.90
2017-10-18T18:24:22.774Z,10.67
2017-10-18T18:26:50.617Z,11.20
2017-10-18T18:29:18.443Z,10.60
2017-10-18T18:31:46.264Z,12.33
2017-10-18T18:34:14.100Z,11.70
2017-10-18T18:36:41.936Z,12.63
2017-10-18T18:39:09.809Z,11.27
2017-10-18T18:41:37.749Z,11.40
2017-10-18T18:44:05.582Z,11.97
2017-10-18T18:46:33.424Z,11.70
2017-10-18T18:49:01.257Z,13.67
2017-10-18T18:51:29.136Z,12.60
2017-10-18T18:53:56.981Z,11.50
2017-10-18T18:56:24.837Z,11.10
2017-10-18T18:58:52.685Z,12.57
2017-10-18T19:01:20.517Z,11.97
2017-10-18T19:03:48.402Z,12.33
2017-10-18T19:06:16.265Z,12.40
2017-10-18T19:08:44.138Z,12.83
2017-10-18T19:11:11.979Z,14.13
2017-10-18T19:13:39.827Z,14.10
2017-10-18T19:16:14.600Z,13.37
2017-10-18T19:18:42.445Z,14.17
2017-10-18T19:21:10.325Z,13.33
2017-10-18T19:23:38.205Z,14.60
2017-10-18T19:26:06.047Z,14.07
2017-10-18T19:28:33.918Z,14.30
2017-10-18T19:31:01.749Z,14.93
2017-10-18T19:33:29.587Z,14.90
2017-10-18T19:35:57.416Z,13.30
2017-10-18T19:38:25.306Z,15.97
2017-10-18T19:40:53.141Z,13.07
2017-10-18T19:43:21.100Z,14.30
2017-10-18T19:45:48.941Z,14.37
2017-10-18T19:48:16.807Z,13.60
2017-10-18T19:50:44.736Z,13.37
2017-10-18T19:53:12.626Z,13.50
2017-10-18T19:55:40.498Z,14.30
2017-10-18T19:58:08.373Z,13.90
2017-10-18T20:00:36.285Z,14.17
2017-10-18T20:03:04.205Z,12.47
2017-10-18T20:05:32.056Z,14.27
2017-10-18T20:07:59.909Z,14.13
2017-10-18T20:10:27.765Z,13.27
2017-10-18T20:12:55.592Z,13.57
2017-10-18T20:15:23.443Z,13.10
2017-10-18T20:17:51.341Z,13.57
2017-10-18T20:20:19.184Z,14.47
2017-10-18T20:22:47.147Z,14.10
2017-10-18T20:25:15.118Z,14.63
2017-10-18T20:27:42.982Z,13.53
2017-10-18T20:30:10.877Z,14.47
2017-10-18T20:32:38.733Z,13.67
2017-10-18T20:35:06.582Z,13.57
2017-10-18T20:37:34.454Z,13.03
2017-10-18T20:40:02.302Z,14.00
2017-10-18T20:42:30.170Z,14.00
2017-10-18T20:44:57.989Z,14.20
2017-10-18T20:47:25.820Z,14.23
2017-10-18T20:49:53.644Z,15.73
2017-10-18T20:52:21.511Z,14.87
2017-10-18T20:54:49.361Z,14.40
2017-10-18T20:57:17.236Z,14.23
2017-10-18T20:59:45.077Z,13.73
2017-10-18T21:02:12.918Z,14.43
2017-10-18T21:04:40.754Z,13.77
2017-10-18T21:07:08.624Z,16.13
2017-10-18T21:09:36.483Z,14.50
2017-10-18T21:12:04.331Z,16.70
2017-10-18T21:14:32.153Z,15.10
2017-10-18T21:17:00.005Z,14.57
2017-10-18T21:19:27.872Z,14.80
2017-10-18T21:21:55.693Z,16.37
2017-10-18T21:24:23.532Z,16.33
2017-10-18T21:26:51.370Z,16.60
2017-10-18T21:29:19.262Z,14.17
2017-10-18T21:31:47.104Z,16.17
2017-10-18T21:34:14.944Z,16.57
2017-10-18T21:36:42.780Z,16.10
2017-10-18T21:39:10.726Z,17.00
2017-10-18T21:41:38.549Z,14.77
2017-10-18T21:44:06.370Z,15.43
2017-10-18T21:46:34.196Z,14.47
2017-10-18T21:49:02.022Z,16.87
2017-10-18T21:51:29.890Z,15.83
2017-10-18T21:53:57.736Z,16.53
2017-10-18T21:56:25.573Z,16.43
2017-10-18T21:58:53.420Z,15.83
2017-10-18T22:01:21.255Z,17.60
2017-10-18T22:03:49.132Z,17.03
2017-10-18T22:06:16.971Z,15.17
2017-10-18T22:08:44.809Z,16.00
2017-10-18T22:11:12.679Z,15.73
2017-10-18T22:13:40.497Z,15.47
2017-10-18T22:16:08.338Z,16.50
2017-10-18T22:18:36.176Z,16.23
2017-10-18T22:21:03.981Z,18.07
2017-10-18T22:23:31.817Z,17.67
2017-10-18T22:25:59.664Z,16.77
2017-10-18T22:28:27.502Z,16.03
2017-10-18T22:30:55.365Z,17.67
2017-10-18T22:33:23.207Z,16.50
2017-10-18T22:35:51.050Z,16.97
2017-10-18T22:38:18.889Z,16.47
2017-10-18T22:40:46.727Z,17.97
2017-10-18T22:43:14.592Z,18.83
2017-10-18T22:45:42.437Z,16.50
2017-10-18T22:48:10.272Z,16.67
2017-10-18T22:50:38.187Z,19.37
2017-10-18T22:53:06.016Z,16.47
2017-10-18T22:55:33.855Z,17.30
2017-10-18T22:58:01.710Z,17.93
2017-10-18T23:00:29.573Z,16.77
2017-10-18T23:02:57.420Z,18.70
2017-10-18T23:05:25.268Z,17.10
2017-10-18T23:07:53.114Z,19.10
2017-10-18T23:10:21.020Z,16.70
2017-10-18T23:12:48.877Z,17.83
2017-10-18T23:15:16.739Z,20.50
2017-10-18T23:17:44.585Z,18.67
2017-10-18T23:20:12.392Z,18.20
2017-10-18T23:22:40.236Z,16.70
2017-10-18T23:25:08.065Z,18.10
2017-10-18T23:27:35.906Z,17.60
2017-10-18T23:30:03.739Z,17.93
2017-10-18T23:32:31.572Z,16.63
2017-10-18T23:34:59.454Z,18.20
2017-10-18T23:37:27.296Z,17.83
2017-10-18T23:39:55.115Z,16.70
2017-10-18T23:42:22.957Z,17.07
2017-10-18T23:44:50.761Z,17.37
2017-10-18T23:47:18.588Z,18.57
2017-10-18T23:49:46.401Z,16.83
2017-10-18T23:52:14.260Z,17.87
2017-10-18T23:54:42.089Z,17.37
2017-10-18T23:57:09.928Z,18.97
2017-10-18T23:59:37.766Z,19.70
